Time;durP1;ratioP1;P1;durP2;ratioP2;P2;SDS_P1;SDS_P2;PMS_P1;PMS_P2;Temp;Humidity;BMP_temperature;BMP_pressure;BME280_temperature;BME280_humidity;BME280_pressure;Samples;Min_cycle;Max_cycle;Signal;HPM_P1;HPM_P2
2023/03/10 00:01:12;;;;;;;15.53;9.53;;;;;;;14.19;65.82;98721.84;5057690;28;20204;-71
2023/03/10 00:03:40;;;;;;;14.83;9.80;;;;;;;14.23;65.40;98729.19;5074761;28;20566;-70
2023/03/10 00:06:07;;;;;;;18.87;9.70;;;;;;;14.24;65.87;98724.66;5074878;28;20286;-72
2023/03/10 00:08:35;;;;;;;16.10;9.53;;;;;;;14.16;65.40;98731.16;5074927;28;20261;-72
2023/03/10 00:11:02;;;;;;;15.47;9.97;;;;;;;14.19;65.40;98733.34;5074355;28;20616;-72
2023/03/10 00:13:29;;;;;;;14.13;10.23;;;;;;;14.14;65.86;98727.09;5074479;28;20250;-71
2023/03/10 00:15:56;;;;;;;15.37;9.43;;;;;;;14.04;66.57;98735.72;5074617;28;20200;-71
2023/03/10 00:18:22;;;;;;;12.03;9.53;;;;;;;13.87;67.17;98732.16;5074634;28;20199;-71
2023/03/10 00:20:51;;;;;;;12.13;9.37;;;;;;;13.81;67.77;98724.28;5074641;28;20200;-71
2023/03/10 00:23:17;;;;;;;13.90;9.90;;;;;;;13.87;67.35;98710.81;5056356;28;20698;-71
2023/03/10 00:25:52;;;;;;;11.83;10.30;;;;;;;13.90;66.81;98697.00;5054285;28;20249;-71
2023/03/10 00:28:19;;;;;;;18.73;10.23;;;;;;;13.97;67.39;98708.31;5054309;28;20253;-71
2023/03/10 00:30:56;;;;;;;13.07;10.30;;;;;;;13.93;67.46;98711.72;5054422;28;20228;-71
2023/03/10 00:33:22;;;;;;;10.00;9.00;;;;;;;13.96;66.94;98716.56;5071088;28;20246;-71
2023/03/10 00:35:49;;;;;;;17.63;10.37;;;;;;;13.99;67.18;98710.78;5074423;28;20188;-71
2023/03/10 00:38:16;;;;;;;15.27;9.47;;;;;;;14.03;66.40;98712.75;5073989;28;20192;-72
2023/03/10 00:40:42;;;;;;;13.63;10.00;;;;;;;14.10;66.13;98718.72;5073974;28;20645;-72
2023/03/10 00:43:10;;;;;;;14.63;10.53;;;;;;;14.12;66.41;98716.66;5073923;28;20200;-71
2023/03/10 00:45:37;;;;;;;14.73;10.70;;;;;;;14.14;66.53;98714.53;5055257;28;20200;-71
2023/03/10 00:48:04;;;;;;;11.17;9.70;;;;;;;14.08;66.71;98710.16;5054111;28;20281;-71
2023/03/10 00:50:31;;;;;;;15.17;10.47;;;;;;;14.11;66.54;98722.22;5054062;28;20274;-71
2023/03/10 00:52:57;;;;;;;13.43;9.87;;;;;;;14.09;66.27;98727.81;5062851;28;20765;-71
2023/03/10 00:55:24;;;;;;;11.67;10.33;;;;;;;14.08;66.92;98726.19;5067296;28;20258;-71
2023/03/10 00:57:51;;;;;;;18.43;11.10;;;;;;;14.07;66.66;98724.56;5053748;28;20258;-71
2023/03/10 01:00:20;;;;;;;14.63;9.77;;;;;;;14.04;66.75;98714.34;5054102;28;20286;-72
2023/03/10 01:02:47;;;;;;;20.13;11.40;;;;;;;13.98;66.25;98720.66;5053659;28;20196;-71
2023/03/10 01:05:14;;;;;;;17.70;10.67;;;;;;;13.92;67.01;98716.25;5053538;28;20200;-71
2023/03/10 01:07:41;;;;;;;13.60;10.23;;;;;;;13.90;66.83;98723.69;5053363;28;20189;-71
2023/03/10 01:10:09;;;;;;;17.37;10.53;;;;;;;13.82;67.75;98718.72;5053324;28;20793;-71
2023/03/10 01:12:36;;;;;;;15.37;9.47;;;;;;;13.78;68.12;98714.91;5053630;28;20199;-72
2023/03/10 01:15:02;;;;;;;12.13;10.17;;;;;;;13.68;68.33;98722.66;5053643;28;20196;-71
2023/03/10 01:17:30;;;;;;;15.40;10.67;;;;;;;13.61;68.84;98711.34;5053248;28;20680;-72
2023/03/10 01:19:57;;;;;;;15.60;10.20;;;;;;;13.60;69.19;98720.34;5053556;28;20287;-71
2023/03/10 01:22:24;;;;;;;15.33;10.67;;;;;;;13.61;68.99;98722.00;5068679;28;20667;-72
2023/03/10 01:24:51;;;;;;;15.93;10.97;;;;;;;13.60;68.44;98725.69;5053135;28;20197;-72
2023/03/10 01:27:17;;;;;;;18.60;12.20;;;;;;;13.53;68.35;98700.19;5053357;28;20196;-69
2023/03/10 01:29:44;;;;;;;13.00;10.40;;;;;;;13.59;68.42;98713.41;5053348;28;20262;-68
2023/03/10 01:32:11;;;;;;;17.87;11.17;;;;;;;13.39;68.98;98710.28;5053278;28;20196;-71
2023/03/10 01:34:39;;;;;;;16.03;10.50;;;;;;;13.39;69.66;98710.28;5067258;28;20195;-72
2023/03/10 01:37:05;;;;;;;16.30;10.50;;;;;;;13.35;69.21;98709.13;5052844;28;20621;-72
2023/03/10 01:39:32;;;;;;;17.47;10.97;;;;;;;13.13;69.95;98709.94;5052914;28;20196;-72
2023/03/10 01:42:00;;;;;;;17.77;10.27;;;;;;;13.00;70.55;98708.31;5052371;28;20205;-72
2023/03/10 01:44:26;;;;;;;16.37;11.13;;;;;;;13.01;70.78;98704.59;5053197;28;20204;-72
2023/03/10 01:46:54;;;;;;;15.50;10.83;;;;;;;12.93;70.74;98702.25;5067902;28;20250;-72
2023/03/10 01:49:29;;;;;;;19.83;11.67;;;;;;;12.72;71.10;98697.47;5072659;28;20653;-72
2023/03/10 01:52:03;;;;;;;21.30;10.40;;;;;;;12.58;71.89;98701.34;5072812;28;20269;-72
2023/03/10 01:54:36;;;;;;;14.80;10.27;;;;;;;12.58;72.51;98696.03;5063094;28;20216;-73
2023/03/10 01:57:05;;;;;;;17.23;10.50;;;;;;;12.47;72.85;98699.50;5052932;28;20188;-72
2023/03/10 01:59:33;;;;;;;20.77;11.10;;;;;;;12.48;73.54;98706.44;5052781;28;20273;-70
2023/03/10 02:02:01;;;;;;;17.93;10.50;;;;;;;12.45;73.00;98704.22;5052313;28;20633;-74
2023/03/10 02:04:35;;;;;;;16.03;9.47;;;;;;;12.45;73.19;98706.88;5052901;28;20226;-74
2023/03/10 02:07:06;;;;;;;13.97;10.63;;;;;;;12.38;73.21;98695.53;5052575;28;20183;-73
2023/03/10 02:09:36;;;;;;;13.83;10.33;;;;;;;12.34;73.99;98704.19;5052886;28;20267;-73
2023/03/10 02:12:04;;;;;;;15.73;10.83;;;;;;;12.31;74.48;98699.31;5052335;28;20658;-73
2023/03/10 02:14:34;;;;;;;19.00;11.83;;;;;;;12.26;74.19;98697.34;5052567;28;20250;-73
2023/03/10 02:17:01;;;;;;;19.10;11.90;;;;;;;12.27;74.48;98706.94;5052298;28;20204;-72
2023/03/10 02:20:04;;;;;;;20.53;11.50;;;;;;;12.17;74.64;98698.66;5052214;28;20593;-73
2023/03/10 02:22:33;;;;;;;14.90;10.60;;;;;;;12.16;74.65;98705.03;5052574;28;20287;-73
2023/03/10 02:25:06;;;;;;;20.80;11.47;;;;;;;12.09;75.01;98722.16;5052534;28;20611;-73
2023/03/10 02:27:37;;;;;;;18.87;10.70;;;;;;;12.04;75.39;98706.84;5052659;28;20192;-73
2023/03/10 02:30:08;;;;;;;19.80;11.10;;;;;;;12.08;75.33;98725.84;5072030;28;20202;-74
2023/03/10 02:32:38;;;;;;;20.23;10.67;;;;;;;11.99;75.34;98709.34;5072224;28;20246;-74
2023/03/10 02:35:05;;;;;;;32.30;12.27;;;;;;;12.02;75.60;98716.09;5072036;28;20187;-74
2023/03/10 02:37:34;;;;;;;17.97;11.53;;;;;;;12.04;76.07;98725.47;5072169;28;20199;-74
2023/03/10 02:40:03;;;;;;;22.60;13.00;;;;;;;12.00;76.24;98726.94;5070892;28;20196;-73
2023/03/10 02:42:33;;;;;;;21.00;11.63;;;;;;;12.02;75.86;98721.41;5072133;28;20193;-74
2023/03/10 02:45:03;;;;;;;18.97;11.87;;;;;;;12.03;75.95;98725.69;5071886;28;20240;-74
2023/03/10 02:47:30;;;;;;;17.20;11.00;;;;;;;12.00;76.24;98726.94;5071946;28;20197;-73
2023/03/10 02:49:57;;;;;;;14.47;11.37;;;;;;;12.02;75.94;98738.19;5072041;28;20202;-74
2023/03/10 02:52:29;;;;;;;20.87;12.13;;;;;;;11.97;75.42;98740.69;5062626;28;20195;-74
2023/03/10 02:54:56;;;;;;;22.20;12.50;;;;;;;11.89;76.03;98737.53;5052102;28;20638;-74
2023/03/10 02:57:23;;;;;;;15.30;11.73;;;;;;;11.86;75.77;98744.13;5051833;28;20340;-74
2023/03/10 02:59:49;;;;;;;22.47;11.87;;;;;;;11.86;76.25;98744.13;5052173;28;20230;-74
2023/03/10 03:02:17;;;;;;;20.93;12.53;;;;;;;11.87;76.39;98743.06;5051673;28;20662;-74
2023/03/10 03:04:44;;;;;;;20.10;12.30;;;;;;;11.89;76.65;98743.69;5051821;28;20195;-73
2023/03/10 03:07:11;;;;;;;19.93;10.70;;;;;;;11.91;76.58;98751.41;5051919;28;20202;-73
2023/03/10 03:09:37;;;;;;;20.87;12.77;;;;;;;11.94;76.95;98745.66;5051843;28;20256;-72
2023/03/10 03:12:04;;;;;;;14.27;11.13;;;;;;;11.96;76.49;98749.72;5051375;28;20597;-72
2023/03/10 03:14:31;;;;;;;16.30;12.20;;;;;;;11.95;76.44;98745.44;5050949;28;20256;-73
2023/03/10 03:16:58;;;;;;;21.53;12.23;;;;;;;11.98;76.27;98752.16;5050990;28;20832;-73
2023/03/10 03:19:26;;;;;;;15.47;11.67;;;;;;;11.92;76.44;98753.06;5051537;28;20185;-72
2023/03/10 03:21:52;;;;;;;18.20;12.53;;;;;;;11.92;76.82;98748.53;5050773;28;20198;-73
2023/03/10 03:24:20;;;;;;;20.17;13.03;;;;;;;11.93;77.00;98750.19;5051309;28;20200;-73
2023/03/10 03:26:47;;;;;;;21.70;11.17;;;;;;;11.95;77.19;98737.47;5051293;28;20294;-73
2023/03/10 03:29:14;;;;;;;20.73;11.80;;;;;;;11.92;76.79;98737.88;5050747;28;20548;-72
2023/03/10 03:31:40;;;;;;;19.33;10.93;;;;;;;11.88;76.85;98736.72;5051227;28;20227;-72
2023/03/10 03:34:07;;;;;;;20.07;12.03;;;;;;;11.82;77.58;98742.13;5051239;28;20200;-73
2023/03/10 03:36:36;;;;;;;18.77;11.67;;;;;;;11.85;77.64;98731.84;5051022;28;20196;-72
2023/03/10 03:39:05;;;;;;;23.80;12.37;;;;;;;11.88;77.66;98741.25;5051057;28;20202;-72
2023/03/10 03:41:32;;;;;;;17.53;11.60;;;;;;;11.91;77.46;98746.09;5051197;28;20203;-72
2023/03/10 03:43:59;;;;;;;15.77;11.10;;;;;;;11.93;77.63;98744.88;5052357;28;20237;-72
2023/03/10 03:46:25;;;;;;;17.03;12.23;;;;;;;11.97;77.51;98734.56;5053111;28;20252;-72
2023/03/10 03:48:52;;;;;;;21.47;12.77;;;;;;;11.99;77.79;98738.63;5050809;28;20240;-72
2023/03/10 03:51:19;;;;;;;18.83;12.27;;;;;;;11.92;78.11;98737.88;5051079;28;20283;-73
2023/03/10 03:53:47;;;;;;;15.97;12.00;;;;;;;11.92;78.36;98737.09;5047573;28;20200;-73
2023/03/10 03:56:13;;;;;;;18.63;12.53;;;;;;;11.95;78.45;98737.47;5050845;28;20194;-74
2023/03/10 03:58:40;;;;;;;20.23;14.70;;;;;;;11.97;77.99;98743.34;5050675;28;20584;-73
2023/03/10 04:01:07;;;;;;;25.17;14.77;;;;;;;11.96;78.21;98739.06;5051130;28;20258;-73
2023/03/10 04:03:34;;;;;;;27.83;14.70;;;;;;;11.93;78.26;98739.53;5051507;28;20192;-73
2023/03/10 04:06:00;;;;;;;27.47;17.37;;;;;;;11.88;78.01;98734.06;5054240;28;20191;-73
2023/03/10 04:08:27;;;;;;;22.73;14.30;;;;;;;11.87;78.25;98728.94;5054368;28;20191;-73
2023/03/10 04:10:56;;;;;;;21.93;14.70;;;;;;;11.95;77.77;98731.31;5055290;28;20268;-73
2023/03/10 04:13:23;;;;;;;34.50;14.80;;;;;;;11.96;77.69;98723.09;5054309;28;20261;-73
2023/03/10 04:15:55;;;;;;;36.37;14.60;;;;;;;11.92;77.32;98713.94;5051693;28;20619;-73
2023/03/10 04:18:21;;;;;;;18.60;14.03;;;;;;;11.99;77.15;98721.84;5053772;28;20191;-72
2023/03/10 04:20:48;;;;;;;25.13;14.97;;;;;;;11.98;77.44;98739.69;5053893;28;20652;-72
2023/03/10 04:23:15;;;;;;;22.13;14.70;;;;;;;11.93;76.97;98728.91;5053642;28;20196;-73
2023/03/10 04:25:42;;;;;;;24.80;13.87;;;;;;;11.94;77.39;98741.16;5054164;28;20203;-74
2023/03/10 04:28:10;;;;;;;28.43;15.03;;;;;;;11.85;77.45;98745.16;5054232;28;20667;-74
2023/03/10 04:30:37;;;;;;;41.40;25.80;;;;;;;11.71;78.15;98740.22;5054254;28;20278;-70
2023/03/10 04:33:04;;;;;;;19.93;13.80;;;;;;;11.73;77.85;98749.59;5054495;28;20240;-70
2023/03/10 04:35:31;;;;;;;31.23;14.97;;;;;;;11.86;82.07;98744.13;5054154;28;20199;-71
2023/03/10 04:37:58;;;;;;;24.50;14.27;;;;;;;12.02;88.66;98740.03;5054332;28;20196;-72
2023/03/10 04:40:24;;;;;;;22.33;13.40;;;;;;;12.61;92.60;98743.53;5054051;28;20546;-72
2023/03/10 04:42:51;;;;;;;26.10;15.13;;;;;;;12.74;79.13;98748.66;5054053;28;20247;-70
2023/03/10 04:45:19;;;;;;;25.00;16.10;;;;;;;12.68;76.86;98752.25;5053911;28;20204;-75
2023/03/10 04:47:46;;;;;;;31.93;15.07;;;;;;;12.62;76.47;98755.00;5053813;28;20569;-73
2023/03/10 04:50:19;;;;;;;25.23;14.93;;;;;;;12.56;76.32;98762.06;5054047;28;20195;-71
2023/03/10 04:52:48;;;;;;;36.20;15.17;;;;;;;12.50;76.44;98762.16;5053633;28;20707;-71
2023/03/10 04:55:15;;;;;;;29.83;14.43;;;;;;;12.40;76.58;98746.69;5052077;28;20211;-71
2023/03/10 04:57:42;;;;;;;31.57;15.33;;;;;;;12.31;76.64;98748.06;5052225;28;20197;-70
2023/03/10 05:00:11;;;;;;;24.50;15.67;;;;;;;12.16;77.52;98734.31;5054550;28;20563;-70
2023/03/10 05:02:39;;;;;;;23.13;15.30;;;;;;;12.14;77.52;98735.59;5053777;28;20204;-70
2023/03/10 05:05:07;;;;;;;29.33;16.33;;;;;;;12.10;77.62;98742.41;5053339;28;20246;-71
2023/03/10 05:07:33;;;;;;;37.47;16.93;;;;;;;12.03;77.80;98739.81;5053267;28;20204;-70
2023/03/10 05:10:00;;;;;;;28.80;15.67;;;;;;;12.00;78.31;98740.25;5053626;28;20262;-70
2023/03/10 05:12:27;;;;;;;45.33;17.27;;;;;;;12.05;78.17;98748.38;5053220;28;20597;-70
2023/03/10 05:14:54;;;;;;;41.17;17.10;;;;;;;11.99;78.41;98738.63;5051926;28;20255;-70
2023/03/10 05:17:21;;;;;;;40.77;17.80;;;;;;;12.03;78.23;98750.47;5053464;28;20250;-71
2023/03/10 05:19:49;;;;;;;42.50;16.47;;;;;;;12.04;78.47;98741.44;5071120;28;20191;-70
2023/03/10 05:22:15;;;;;;;43.00;19.00;;;;;;;12.00;77.81;98745.56;5073324;28;20205;-70
2023/03/10 05:24:46;;;;;;;38.73;19.83;;;;;;;11.98;78.43;98745.00;5065486;28;20262;-72
2023/03/10 05:27:13;;;;;;;46.33;20.70;;;;;;;12.00;78.48;98750.91;5051665;28;20270;-72
2023/03/10 05:29:41;;;;;;;50.70;23.97;;;;;;;12.06;78.35;98749.19;5051085;28;20207;-72
2023/03/10 05:32:08;;;;;;;42.50;23.73;;;;;;;12.10;78.10;98751.19;5052252;28;20781;-72
2023/03/10 05:34:34;;;;;;;71.53;24.53;;;;;;;12.16;78.02;98749.50;5052087;28;20256;-72
2023/03/10 05:37:02;;;;;;;51.10;22.50;;;;;;;12.15;77.55;98748.69;5052131;28;20199;-72
2023/03/10 05:39:29;;;;;;;45.00;21.70;;;;;;;12.17;77.91;98743.13;5052080;28;20226;-73
2023/03/10 05:41:56;;;;;;;49.60;22.57;;;;;;;12.10;78.10;98732.56;5051870;28;20200;-71
2023/03/10 05:44:23;;;;;;;55.97;22.57;;;;;;;12.25;78.18;98743.63;5052041;28;20671;-72
2023/03/10 05:46:50;;;;;;;59.77;23.83;;;;;;;12.29;78.09;98736.81;5052132;28;20255;-72
2023/03/10 05:49:16;;;;;;;46.87;24.20;;;;;;;12.20;77.61;98735.50;5060420;28;20650;-71
2023/03/10 05:51:43;;;;;;;58.57;25.57;;;;;;;12.28;78.02;98737.03;5044474;28;20632;-71
2023/03/10 05:54:11;;;;;;;48.63;20.13;;;;;;;12.31;77.68;98734.75;5032229;28;20206;-71
2023/03/10 05:56:38;;;;;;;43.17;18.60;;;;;;;12.39;77.50;98729.09;5047267;28;20196;-75
2023/03/10 05:59:06;;;;;;;55.13;18.90;;;;;;;12.41;77.22;98721.69;5046397;28;20274;-72
2023/03/10 06:01:33;;;;;;;38.57;17.57;;;;;;;12.49;76.32;98729.34;5052104;28;20365;-71
2023/03/10 06:04:00;;;;;;;40.13;18.13;;;;;;;12.60;76.44;98725.94;5050022;28;20737;-71
2023/03/10 06:06:27;;;;;;;47.80;19.83;;;;;;;12.64;75.92;98721.78;5049357;28;20195;-71
2023/03/10 06:08:54;;;;;;;62.10;21.23;;;;;;;12.73;76.23;98720.41;5052328;28;20196;-72
2023/03/10 06:11:22;;;;;;;46.17;20.37;;;;;;;12.73;74.99;98709.75;5050608;28;20223;-74
2023/03/10 06:13:49;;;;;;;61.93;20.20;;;;;;;13.05;77.23;98715.63;5050888;28;20668;-74
2023/03/10 06:16:17;;;;;;;37.87;19.37;;;;;;;13.22;75.25;98722.69;5056829;28;20258;-73
2023/03/10 06:18:44;;;;;;;52.80;21.03;;;;;;;13.44;74.98;98713.06;5050492;28;20200;-74
2023/03/10 06:21:12;;;;;;;48.67;23.93;;;;;;;13.62;73.49;98714.78;5031789;28;20196;-73
2023/03/10 06:23:40;;;;;;;74.77;23.40;;;;;;;13.83;72.74;98723.00;5050177;28;20657;-72
2023/03/10 06:26:09;;;;;;;48.80;21.70;;;;;;;13.92;71.27;98721.59;5050854;28;20659;-72
2023/03/10 06:28:40;;;;;;;48.97;21.63;;;;;;;14.16;71.32;98722.31;5051429;28;20274;-73
2023/03/10 06:31:09;;;;;;;51.67;21.93;;;;;;;14.31;70.83;98728.81;5049781;28;20189;-70
2023/03/10 06:33:36;;;;;;;36.60;20.10;;;;;;;14.51;70.01;98726.53;5051505;28;20188;-72
2023/03/10 06:36:03;;;;;;;49.13;21.00;;;;;;;14.84;68.75;98715.88;5051535;28;20192;-74
2023/03/10 06:38:29;;;;;;;64.50;21.93;;;;;;;15.10;66.71;98725.94;5051559;28;20250;-74
2023/03/10 06:40:56;;;;;;;53.83;21.87;;;;;;;15.37;66.66;98726.94;5051009;28;20192;-72
2023/03/10 06:43:23;;;;;;;63.60;22.40;;;;;;;15.62;65.19;98723.81;5049820;28;20196;-73
2023/03/10 06:45:51;;;;;;;69.93;23.47;;;;;;;15.93;64.13;98730.38;5050592;28;20196;-71
2023/03/10 06:48:18;;;;;;;53.90;20.60;;;;;;;16.30;63.86;98742.06;5051466;28;20196;-73
2023/03/10 06:50:46;;;;;;;43.90;18.77;;;;;;;16.65;61.35;98737.13;5051418;28;20189;-73
2023/03/10 06:53:14;;;;;;;50.00;20.40;;;;;;;16.89;60.12;98725.81;5052040;28;20254;-73
2023/03/10 06:55:41;;;;;;;43.37;20.03;;;;;;;17.29;59.64;98736.09;5051237;28;20671;-70
2023/03/10 06:58:08;;;;;;;51.10;21.10;;;;;;;17.71;59.69;98729.69;5050486;28;20743;-72
2023/03/10 07:00:35;;;;;;;48.97;20.70;;;;;;;18.23;56.57;98732.34;5033316;28;20282;-71
2023/03/10 07:03:03;;;;;;;54.43;20.80;;;;;;;18.57;54.63;98718.22;5031255;28;20207;-72
2023/03/10 07:05:30;;;;;;;56.00;22.07;;;;;;;18.79;52.24;98721.47;5038215;28;20196;-71
2023/03/10 07:07:56;;;;;;;44.03;21.57;;;;;;;18.90;53.42;98720.41;5033432;28;20200;-70
2023/03/10 07:10:23;;;;;;;64.17;20.63;;;;;;;19.13;53.28;98708.31;5030534;28;20202;-73
2023/03/10 07:12:53;;;;;;;50.27;19.53;;;;;;;19.40;52.10;98709.66;5049024;28;20705;-68
2023/03/10 07:15:21;;;;;;;59.57;20.53;;;;;;;19.50;51.41;98714.22;5049980;28;20561;-70
2023/03/10 07:17:48;;;;;;;47.73;20.00;;;;;;;19.64;51.36;98704.53;5049835;28;20280;-72
2023/03/10 07:20:16;;;;;;;38.73;17.63;;;;;;;19.86;50.26;98713.06;5046957;28;20219;-71
2023/03/10 07:22:43;;;;;;;36.30;15.53;;;;;;;19.92;50.20;98710.09;5050670;28;20197;-74
2023/03/10 07:25:10;;;;;;;33.90;10.43;;;;;;;20.05;57.93;98706.78;5051190;28;20662;-72
2023/03/10 07:27:36;;;;;;;25.50;10.27;;;;;;;20.34;54.58;98706.97;5050457;28;20201;-71
2023/03/10 07:30:04;;;;;;;19.60;10.10;;;;;;;20.69;49.44;98722.94;5050898;28;20676;-71
2023/03/10 07:32:30;;;;;;;20.67;9.53;;;;;;;21.06;50.35;98717.06;5057762;28;20273;-71
2023/03/10 07:34:57;;;;;;;24.10;10.83;;;;;;;21.21;44.02;98701.53;5031837;28;20201;-70
2023/03/10 07:37:25;;;;;;;15.97;9.87;;;;;;;21.31;46.30;98685.22;5067937;28;20188;-71
2023/03/10 07:39:54;;;;;;;21.07;11.17;;;;;;;21.48;42.05;98701.78;5074480;28;20204;-72
2023/03/10 07:42:20;;;;;;;25.73;13.13;;;;;;;21.56;44.98;98706.56;5072579;28;20200;-71
2023/03/10 07:44:47;;;;;;;27.47;15.53;;;;;;;21.72;42.43;98702.66;5074938;28;20192;-72
2023/03/10 07:47:14;;;;;;;29.23;13.10;;;;;;;21.78;41.48;98706.94;5073179;28;20616;-71
2023/03/10 07:49:45;;;;;;;25.40;13.00;;;;;;;21.79;42.96;98705.84;5054203;28;20204;-71
2023/03/10 07:52:13;;;;;;;23.27;11.40;;;;;;;22.02;45.55;98702.31;5054459;28;20211;-71
2023/03/10 07:54:43;;;;;;;16.37;10.97;;;;;;;22.22;44.82;98702.06;5062224;28;20199;-70
2023/03/10 07:57:10;;;;;;;20.63;10.53;;;;;;;22.38;46.96;98689.94;5074419;28;20713;-73
2023/03/10 07:59:36;;;;;;;66.37;17.27;;;;;;;22.60;42.55;98703.75;5058129;28;20216;-70
2023/03/10 08:02:04;;;;;;;25.37;13.60;;;;;;;22.65;41.78;98716.38;5054998;28;20200;-70
2023/03/10 08:04:30;;;;;;;23.30;15.50;;;;;;;22.48;42.98;98711.50;5034556;28;20689;-70
2023/03/10 08:07:00;;;;;;;26.33;15.47;;;;;;;22.50;42.76;98705.78;5044512;28;20254;-70
2023/03/10 08:09:27;;;;;;;26.00;19.03;;;;;;;22.34;40.66;98710.56;5054344;28;20197;-72
2023/03/10 08:11:55;;;;;;;38.30;18.30;;;;;;;22.16;41.64;98705.94;5054625;28;20197;-70
2023/03/10 08:14:22;;;;;;;29.43;16.80;;;;;;;22.04;42.60;98704.72;5055287;28;20258;-69
2023/03/10 08:16:49;;;;;;;37.63;18.00;;;;;;;21.71;40.95;98695.66;5055634;28;20207;-71
2023/03/10 08:19:16;;;;;;;36.10;15.10;;;;;;;21.49;42.33;98694.50;5054411;28;20606;-72
2023/03/10 08:21:43;;;;;;;19.17;13.23;;;;;;;21.11;44.39;98690.00;5054248;28;20668;-70
2023/03/10 08:24:10;;;;;;;27.67;13.20;;;;;;;20.80;44.89;98689.41;5054532;28;20199;-71
2023/03/10 08:26:37;;;;;;;42.10;13.40;;;;;;;20.82;47.69;98692.63;5071984;28;20238;-72
2023/03/10 08:29:05;;;;;;;14.47;9.63;;;;;;;20.88;48.41;98691.50;5057035;28;20200;-71
2023/03/10 08:31:32;;;;;;;11.90;9.23;;;;;;;21.03;48.92;98679.81;5050848;28;20750;-69
2023/03/10 08:33:59;;;;;;;19.67;9.73;;;;;;;21.11;48.55;98663.78;5052543;28;20208;-70
2023/03/10 08:36:28;;;;;;;10.97;8.67;;;;;;;21.41;48.43;98674.31;5054974;28;20261;-70
2023/03/10 08:38:55;;;;;;;11.90;10.70;;;;;;;21.28;44.11;98680.41;5073082;28;20196;-71
2023/03/10 08:41:24;;;;;;;16.70;10.27;;;;;;;21.04;44.92;98678.72;5073618;28;20219;-71
2023/03/10 08:43:52;;;;;;;15.07;10.47;;;;;;;20.93;44.81;98672.59;5055734;28;20311;-68
2023/03/10 08:46:23;;;;;;;15.50;9.93;;;;;;;20.86;44.88;98666.66;5053204;28;20197;-67
2023/03/10 08:48:50;;;;;;;16.43;9.77;;;;;;;20.80;45.35;98669.69;5068809;28;20194;-66
2023/03/10 08:51:17;;;;;;;12.93;10.03;;;;;;;20.70;46.08;98645.50;5071277;28;20196;-66
2023/03/10 08:53:47;;;;;;;19.60;11.20;;;;;;;20.74;46.56;98655.41;5072911;28;20651;-67
2023/03/10 08:56:15;;;;;;;11.03;9.00;;;;;;;20.62;46.35;98649.56;5053258;28;20197;-68
2023/03/10 08:58:41;;;;;;;13.00;8.00;;;;;;;20.43;46.97;98654.84;5053739;28;20289;-67
2023/03/10 09:01:08;;;;;;;8.23;7.53;;;;;;;20.31;47.32;98638.19;5044093;28;20251;-68
2023/03/10 09:03:38;;;;;;;18.30;8.67;;;;;;;20.43;47.40;98652.13;5032846;28;20201;-67
2023/03/10 09:06:05;;;;;;;10.50;7.67;;;;;;;20.34;47.27;98653.03;5067537;28;20192;-68
2023/03/10 09:08:32;;;;;;;9.93;6.97;;;;;;;20.41;46.90;98643.53;5051438;28;20196;-68
2023/03/10 09:10:59;;;;;;;9.00;7.40;;;;;;;20.53;46.24;98637.78;5056882;28;20643;-67
2023/03/10 09:13:26;;;;;;;11.43;7.60;;;;;;;20.68;45.66;98637.66;5056627;28;20224;-66
2023/03/10 09:15:53;;;;;;;12.77;8.67;;;;;;;20.83;45.66;98634.88;5051814;28;20200;-68
2023/03/10 09:18:20;;;;;;;12.27;9.10;;;;;;;21.03;45.30;98626.59;5051530;28;20280;-68
2023/03/10 09:20:49;;;;;;;11.93;7.13;;;;;;;21.17;44.46;98624.03;5050776;28;20626;-68
2023/03/10 09:23:17;;;;;;;6.93;6.23;;;;;;;21.27;44.92;98616.63;5052730;28;20279;-68
2023/03/10 09:25:44;;;;;;;9.33;6.90;;;;;;;21.54;46.27;98619.59;5051840;28;20574;-70
2023/03/10 09:28:11;;;;;;;7.73;7.13;;;;;;;21.68;44.22;98620.50;5061194;28;20192;-67
2023/03/10 09:30:41;;;;;;;7.77;7.00;;;;;;;21.78;43.73;98609.59;5051260;28;20726;-68
2023/03/10 09:33:14;;;;;;;7.10;6.40;;;;;;;21.72;43.77;98608.03;5050331;28;20287;-67
2023/03/10 09:35:41;;;;;;;11.97;6.73;;;;;;;21.65;43.61;98602.16;5059883;28;20652;-68
2023/03/10 09:38:09;;;;;;;8.40;6.00;;;;;;;21.70;45.03;98595.88;5052448;28;20196;-69
2023/03/10 09:40:39;;;;;;;6.90;5.90;;;;;;;21.69;43.15;98595.09;5052606;28;20193;-68
2023/03/10 09:43:07;;;;;;;6.80;5.87;;;;;;;21.84;42.75;98581.38;5051148;28;20355;-66
2023/03/10 09:45:43;;;;;;;5.67;5.27;;;;;;;21.93;41.85;98584.25;5051696;28;20434;-65
2023/03/10 09:48:31;;;;;;;8.13;5.07;;;;;;;21.96;49.72;98567.47;5055877;28;20921;-65
2023/03/10 09:51:00;;;;;;;5.13;4.63;;;;;;;22.19;48.69;98566.56;5071897;28;20184;-72
2023/03/10 09:53:45;;;;;;;5.97;5.37;;;;;;;22.51;46.72;98547.69;5072088;28;20232;-71
2023/03/10 09:56:15;;;;;;;4.80;4.33;;;;;;;22.95;44.71;98546.09;5059491;28;20193;-72
2023/03/10 09:58:45;;;;;;;5.10;4.60;;;;;;;23.04;43.88;98544.31;5059830;28;20224;-76
2023/03/10 10:01:16;;;;;;;4.73;4.30;;;;;;;23.21;43.00;98544.56;5041414;28;20661;-75
2023/03/10 10:03:46;;;;;;;5.30;4.40;;;;;;;23.39;41.78;98549.06;5032132;28;20198;-77
2023/03/10 10:06:18;;;;;;;5.67;4.70;;;;;;;23.42;42.10;98542.25;5031657;28;20195;-76
2023/03/10 10:08:53;;;;;;;5.07;4.67;;;;;;;23.60;39.52;98544.06;5032128;28;20309;-72
2023/03/10 10:11:20;;;;;;;5.40;5.10;;;;;;;23.61;40.62;98534.81;5055834;28;20189;-73
2023/03/10 10:13:47;;;;;;;8.40;5.33;;;;;;;23.83;39.15;98527.53;5064616;28;20217;-69
2023/03/10 10:16:25;;;;;;;8.00;5.07;;;;;;;24.04;38.21;98523.28;5061943;28;20197;-69
2023/03/10 10:18:59;;;;;;;8.03;6.53;;;;;;;23.63;39.06;98538.00;5072338;28;20216;-70
2023/03/10 10:21:34;;;;;;;10.63;7.60;;;;;;;23.72;39.39;98515.28;5071878;28;20191;-68
2023/03/10 10:24:02;;;;;;;6.33;5.67;;;;;;;23.87;41.30;98516.84;5053949;28;20447;-72
2023/03/10 10:26:29;;;;;;;4.70;4.40;;;;;;;23.95;41.75;98502.59;5051424;28;20198;-71
2023/03/10 10:28:57;;;;;;;9.27;5.33;;;;;;;24.03;42.48;98504.59;5051228;28;20748;-76
2023/03/10 10:31:26;;;;;;;7.90;5.70;;;;;;;23.96;41.43;98494.16;5051806;28;20255;-70
2023/03/10 10:33:58;;;;;;;6.30;5.03;;;;;;;24.14;42.65;98493.19;5055101;28;20785;-74
2023/03/10 10:36:27;;;;;;;5.20;4.60;;;;;;;24.11;39.01;98477.53;5047500;28;20243;-68
2023/03/10 10:38:55;;;;;;;5.43;5.03;;;;;;;23.43;40.56;98473.34;5071526;28;20263;-65
2023/03/10 10:41:26;;;;;;;7.00;5.00;;;;;;;23.27;41.10;98472.09;5071544;28;20194;-67
2023/03/10 10:43:56;;;;;;;5.00;4.17;;;;;;;23.06;41.04;98462.72;5069163;28;20653;-66
2023/03/10 10:46:26;;;;;;;4.20;3.73;;;;;;;23.04;41.40;98460.34;5062077;28;20220;-67
2023/03/10 10:49:22;;;;;;;5.03;4.63;;;;;;;23.02;41.56;98440.03;5053858;28;20687;-67
2023/03/10 10:52:00;;;;;;;4.57;4.13;;;;;;;22.96;41.86;98431.25;5044054;28;20275;-65
2023/03/10 10:54:29;;;;;;;4.57;3.70;;;;;;;22.89;41.97;98420.00;5068993;28;20302;-67
2023/03/10 10:57:00;;;;;;;4.10;3.63;;;;;;;22.69;42.51;98404.16;5063662;28;20256;-68
2023/03/10 10:59:30;;;;;;;7.07;4.10;;;;;;;22.66;43.06;98403.97;5056582;28;20223;-68
2023/03/10 11:01:59;;;;;;;6.47;4.70;;;;;;;22.59;43.49;98385.41;5053907;28;20254;-68
2023/03/10 11:04:28;;;;;;;7.23;4.33;;;;;;;22.62;43.28;98387.50;5047222;28;20217;-69
2023/03/10 11:07:10;;;;;;;5.10;4.07;;;;;;;22.50;43.96;98378.28;5049039;28;20198;-68
2023/03/10 11:09:37;;;;;;;4.50;4.10;;;;;;;22.39;44.54;98361.41;5050540;28;20299;-67
2023/03/10 11:12:16;;;;;;;5.53;3.87;;;;;;;22.35;45.19;98349.56;5050343;28;20201;-69
2023/03/10 11:15:03;;;;;;;4.00;3.40;;;;;;;22.34;45.37;98350.66;5057943;28;20212;-69
2023/03/10 11:17:34;;;;;;;3.73;3.43;;;;;;;22.26;45.71;98342.44;5054750;28;20234;-70
2023/03/10 11:20:11;;;;;;;5.27;3.60;;;;;;;22.15;46.31;98331.00;5055032;28;20254;-71
2023/03/10 11:22:42;;;;;;;4.53;4.13;;;;;;;22.26;45.94;98334.31;5034907;28;20188;-70
2023/03/10 11:25:23;;;;;;;10.00;4.40;;;;;;;22.43;47.01;98335.34;5043123;28;20259;-71
2023/03/10 11:28:00;;;;;;;6.37;2.90;;;;;;;22.63;45.61;98326.84;5051652;28;20239;-70